sensor_id;sensor_type;location;lat;lon;timestamp;pressure;altitude;pressure_sealevel;temperature;humidity
71004;BME280;59025;42.050;-8.660;2022-10-16T00:02:17;100597.13;;;17.49;100.00
71004;BME280;59025;42.050;-8.660;2022-10-16T00:04:44;100596.81;;;17.45;100.00
71004;BME280;59025;42.050;-8.660;2022-10-16T00:07:12;100589.25;;;17.44;100.00
71004;BME280;59025;42.050;-8.660;2022-10-16T00:09:40;100583.50;;;17.42;100.00
71004;BME280;59025;42.050;-8.660;2022-10-16T00:12:08;100576.25;;;17.44;100.00
71004;BME280;59025;42.050;-8.660;2022-10-16T00:14:35;100568.69;;;17.42;100.00
71004;BME280;59025;42.050;-8.660;2022-10-16T00:17:03;100565.03;;;17.43;100.00
71004;BME280;59025;42.050;-8.660;2022-10-16T00:19:30;100565.03;;;17.43;100.00
71004;BME280;59025;42.050;-8.660;2022-10-16T00:21:58;100560.69;;;17.49;100.00
71004;BME280;59025;42.050;-8.660;2022-10-16T00:24:25;100555.19;;;17.45;100.00
71004;BME280;59025;42.050;-8.660;2022-10-16T00:26:54;100555.97;;;17.46;100.00
71004;BME280;59025;42.050;-8.660;2022-10-16T00:29:21;100555.44;;;17.44;100.00
71004;BME280;59025;42.050;-8.660;2022-10-16T00:31:49;100549.75;;;17.47;100.00
71004;BME280;59025;42.050;-8.660;2022-10-16T00:34:16;100552.38;;;17.52;100.00
71004;BME280;59025;42.050;-8.660;2022-10-16T00:36:44;100546.66;;;17.50;100.00
71004;BME280;59025;42.050;-8.660;2022-10-16T00:39:11;100551.63;;;17.51;100.00
71004;BME280;59025;42.050;-8.660;2022-10-16T00:41:39;100548.50;;;17.49;100.00
71004;BME280;59025;42.050;-8.660;2022-10-16T00:47:09;100540.19;;;17.52;100.00
71004;BME280;59025;42.050;-8.660;2022-10-16T00:49:38;100543.88;;;17.56;100.00
71004;BME280;59025;42.050;-8.660;2022-10-16T00:52:05;100542.78;;;17.52;100.00
71004;BME280;59025;42.050;-8.660;2022-10-16T00:54:33;100532.09;;;17.49;100.00
71004;BME280;59025;42.050;-8.660;2022-10-16T00:57:04;100536.75;;;17.47;100.00
71004;BME280;59025;42.050;-8.660;2022-10-16T00:59:34;100542.72;;;17.47;100.00
71004;BME280;59025;42.050;-8.660;2022-10-16T01:02:04;100531.78;;;17.45;100.00
71004;BME280;59025;42.050;-8.660;2022-10-16T01:04:35;100528.44;;;17.50;100.00
71004;BME280;59025;42.050;-8.660;2022-10-16T01:07:10;100519.81;;;17.44;100.00
71004;BME280;59025;42.050;-8.660;2022-10-16T01:09:47;100512.00;;;17.44;100.00
71004;BME280;59025;42.050;-8.660;2022-10-16T01:12:22;100512.78;;;17.45;100.00
71004;BME280;59025;42.050;-8.660;2022-10-16T01:14:55;100511.44;;;17.42;100.00
71004;BME280;59025;42.050;-8.660;2022-10-16T01:17:29;100508.63;;;17.44;100.00
71004;BME280;59025;42.050;-8.660;2022-10-16T01:20:07;100501.56;;;17.39;100.00
71004;BME280;59025;42.050;-8.660;2022-10-16T01:22:47;100502.63;;;17.43;100.00
71004;BME280;59025;42.050;-8.660;2022-10-16T01:25:22;100506.31;;;17.47;100.00
71004;BME280;59025;42.050;-8.660;2022-10-16T01:27:54;100500.34;;;17.47;100.00
71004;BME280;59025;42.050;-8.660;2022-10-16T01:30:26;100499.00;;;17.44;100.00
71004;BME280;59025;42.050;-8.660;2022-10-16T01:32:58;100490.16;;;17.45;100.00
71004;BME280;59025;42.050;-8.660;2022-10-16T01:35:31;100497.41;;;17.43;100.00
71004;BME280;59025;42.050;-8.660;2022-10-16T01:38:02;100494.34;;;17.46;100.00
71004;BME280;59025;42.050;-8.660;2022-10-16T01:40:33;100487.81;;;17.44;100.00
71004;BME280;59025;42.050;-8.660;2022-10-16T01:43:05;100493.81;;;17.44;100.00
71004;BME280;59025;42.050;-8.660;2022-10-16T01:45:34;100488.59;;;17.44;100.00
71004;BME280;59025;42.050;-8.660;2022-10-16T01:48:04;100488.31;;;17.41;100.00
71004;BME280;59025;42.050;-8.660;2022-10-16T01:50:38;100483.88;;;17.41;100.00
71004;BME280;59025;42.050;-8.660;2022-10-16T01:53:08;100482.31;;;17.40;100.00
71004;BME280;59025;42.050;-8.660;2022-10-16T01:55:39;100485.22;;;17.44;100.00
71004;BME280;59025;42.050;-8.660;2022-10-16T01:58:13;100472.94;;;17.39;100.00
71004;BME280;59025;42.050;-8.660;2022-10-16T02:00:44;100478.16;;;17.39;100.00
71004;BME280;59025;42.050;-8.660;2022-10-16T02:03:13;100482.06;;;17.42;100.00
71004;BME280;59025;42.050;-8.660;2022-10-16T02:05:45;100473.72;;;17.40;100.00
71004;BME280;59025;42.050;-8.660;2022-10-16T02:08:13;100468.50;;;17.40;100.00
71004;BME280;59025;42.050;-8.660;2022-10-16T02:10:41;100467.00;;;17.44;100.00
71004;BME280;59025;42.050;-8.660;2022-10-16T02:13:14;100456.75;;;17.37;100.00
71004;BME280;59025;42.050;-8.660;2022-10-16T02:15:44;100453.09;;;17.33;100.00
71004;BME280;59025;42.050;-8.660;2022-10-16T02:18:11;100447.34;;;17.31;100.00
71004;BME280;59025;42.050;-8.660;2022-10-16T02:20:44;100442.13;;;17.31;100.00
71004;BME280;59025;42.050;-8.660;2022-10-16T02:23:18;100443.22;;;17.35;100.00
71004;BME280;59025;42.050;-8.660;2022-10-16T02:25:47;100431.56;;;17.38;100.00
71004;BME280;59025;42.050;-8.660;2022-10-16T02:28:19;100436.53;;;17.39;100.00
71004;BME280;59025;42.050;-8.660;2022-10-16T02:30:51;100432.28;;;17.33;100.00
71004;BME280;59025;42.050;-8.660;2022-10-16T02:33:24;100426.28;;;17.33;100.00
71004;BME280;59025;42.050;-8.660;2022-10-16T02:35:53;100421.38;;;17.36;100.00
71004;BME280;59025;42.050;-8.660;2022-10-16T02:38:22;100423.97;;;17.36;100.00
71004;BME280;59025;42.050;-8.660;2022-10-16T02:40:50;100414.09;;;17.33;100.00
71004;BME280;59025;42.050;-8.660;2022-10-16T02:43:19;100412.53;;;17.37;100.00
71004;BME280;59025;42.050;-8.660;2022-10-16T02:45:46;100416.16;;;17.36;100.00
71004;BME280;59025;42.050;-8.660;2022-10-16T02:48:14;100412.00;;;17.35;100.00
71004;BME280;59025;42.050;-8.660;2022-10-16T02:50:41;100417.75;;;17.37;100.00
71004;BME280;59025;42.050;-8.660;2022-10-16T02:53:09;100418.56;;;17.38;100.00
71004;BME280;59025;42.050;-8.660;2022-10-16T02:55:36;100407.34;;;17.37;100.00
71004;BME280;59025;42.050;-8.660;2022-10-16T02:58:04;100402.63;;;17.34;100.00
71004;BME280;59025;42.050;-8.660;2022-10-16T03:00:33;100400.56;;;17.36;100.00
71004;BME280;59025;42.050;-8.660;2022-10-16T03:03:00;100400.03;;;17.34;100.00
71004;BME280;59025;42.050;-8.660;2022-10-16T03:05:28;100401.06;;;17.33;100.00
71004;BME280;59025;42.050;-8.660;2022-10-16T03:07:55;100406.34;;;17.38;100.00
71004;BME280;59025;42.050;-8.660;2022-10-16T03:10:22;100402.72;;;17.39;100.00
71004;BME280;59025;42.050;-8.660;2022-10-16T03:12:50;100406.56;;;17.37;100.00
71004;BME280;59025;42.050;-8.660;2022-10-16T03:15:17;100396.72;;;17.39;100.00
71004;BME280;59025;42.050;-8.660;2022-10-16T03:17:46;100392.25;;;17.34;100.00
71004;BME280;59025;42.050;-8.660;2022-10-16T03:20:15;100396.91;;;17.32;100.00
71004;BME280;59025;42.050;-8.660;2022-10-16T03:22:42;100381.78;;;17.29;100.00
71004;BME280;59025;42.050;-8.660;2022-10-16T03:25:10;100386.25;;;17.34;100.00
71004;BME280;59025;42.050;-8.660;2022-10-16T03:27:37;100385.72;;;17.32;100.00
71004;BME280;59025;42.050;-8.660;2022-10-16T03:30:05;100389.97;;;17.38;100.00
71004;BME280;59025;42.050;-8.660;2022-10-16T03:32:33;100395.97;;;17.38;100.00
71004;BME280;59025;42.050;-8.660;2022-10-16T03:35:02;100401.56;;;17.30;100.00
71004;BME280;59025;42.050;-8.660;2022-10-16T03:37:29;100403.63;;;17.28;100.00
71004;BME280;59025;42.050;-8.660;2022-10-16T03:39:57;100401.56;;;17.30;100.00
71004;BME280;59025;42.050;-8.660;2022-10-16T03:42:24;100405.19;;;17.29;100.00
71004;BME280;59025;42.050;-8.660;2022-10-16T03:44:52;100399.75;;;17.31;100.00
71004;BME280;59025;42.050;-8.660;2022-10-16T03:47:19;100403.69;;;17.33;100.00
71004;BME280;59025;42.050;-8.660;2022-10-16T03:49:49;100400.53;;;17.31;100.00
71004;BME280;59025;42.050;-8.660;2022-10-16T03:52:18;100395.59;;;17.35;100.00
71004;BME280;59025;42.050;-8.660;2022-10-16T03:54:45;100392.47;;;17.33;100.00
71004;BME280;59025;42.050;-8.660;2022-10-16T03:57:13;100391.16;;;17.30;100.00
71004;BME280;59025;42.050;-8.660;2022-10-16T03:59:40;100401.31;;;17.32;100.00
71004;BME280;59025;42.050;-8.660;2022-10-16T04:02:08;100390.34;;;17.25;100.00
71004;BME280;59025;42.050;-8.660;2022-10-16T04:04:35;100401.03;;;17.28;100.00
71004;BME280;59025;42.050;-8.660;2022-10-16T04:07:03;100397.34;;;17.24;100.00
71004;BME280;59025;42.050;-8.660;2022-10-16T04:09:32;100402.00;;;17.22;100.00
71004;BME280;59025;42.050;-8.660;2022-10-16T04:11:59;100400.69;;;17.20;100.00
71004;BME280;59025;42.050;-8.660;2022-10-16T04:14:27;100398.38;;;17.23;100.00
71004;BME280;59025;42.050;-8.660;2022-10-16T04:16:54;100396.25;;;17.20;100.00
71004;BME280;59025;42.050;-8.660;2022-10-16T04:19:21;100399.66;;;17.21;100.00
71004;BME280;59025;42.050;-8.660;2022-10-16T04:21:49;100396.81;;;17.22;100.00
71004;BME280;59025;42.050;-8.660;2022-10-16T04:24:16;100402.00;;;17.22;100.00
71004;BME280;59025;42.050;-8.660;2022-10-16T04:26:45;100399.94;;;17.24;100.00
71004;BME280;59025;42.050;-8.660;2022-10-16T04:29:13;100402.00;;;17.22;100.00
71004;BME280;59025;42.050;-8.660;2022-10-16T04:31:40;100389.53;;;17.24;100.00
71004;BME280;59025;42.050;-8.660;2022-10-16T04:34:08;100395.53;;;17.25;100.00
71004;BME280;59025;42.050;-8.660;2022-10-16T04:36:35;100391.56;;;17.17;100.00
71004;BME280;59025;42.050;-8.660;2022-10-16T04:39:03;100393.13;;;17.18;100.00
71004;BME280;59025;42.050;-8.660;2022-10-16T04:41:30;100393.59;;;17.15;100.00
71004;BME280;59025;42.050;-8.660;2022-10-16T04:43:59;100391.00;;;17.15;100.00
71004;BME280;59025;42.050;-8.660;2022-10-16T04:46:26;100387.63;;;17.15;100.00
71004;BME280;59025;42.050;-8.660;2022-10-16T04:48:54;100391.81;;;17.16;100.00
71004;BME280;59025;42.050;-8.660;2022-10-16T04:51:21;100388.41;;;17.15;100.00
71004;BME280;59025;42.050;-8.660;2022-10-16T04:53:49;100388.47;;;17.20;100.00
71004;BME280;59025;42.050;-8.660;2022-10-16T04:56:16;100391.00;;;17.15;100.00
71004;BME280;59025;42.050;-8.660;2022-10-16T04:58:44;100388.63;;;17.09;100.00
71004;BME280;59025;42.050;-8.660;2022-10-16T05:01:13;100390.19;;;17.10;100.00
71004;BME280;59025;42.050;-8.660;2022-10-16T05:03:41;100386.31;;;17.12;100.00
71004;BME280;59025;42.050;-8.660;2022-10-16T05:06:08;100386.31;;;17.12;100.00
71004;BME280;59025;42.050;-8.660;2022-10-16T05:08:36;100389.38;;;17.09;100.00
71004;BME280;59025;42.050;-8.660;2022-10-16T05:11:03;100386.75;;;17.04;100.00
71004;BME280;59025;42.050;-8.660;2022-10-16T05:13:31;100387.78;;;17.03;100.00
71004;BME280;59025;42.050;-8.660;2022-10-16T05:15:58;100391.41;;;17.02;100.00
71004;BME280;59025;42.050;-8.660;2022-10-16T05:18:27;100387.47;;;17.00;100.00
71004;BME280;59025;42.050;-8.660;2022-10-16T05:20:55;100381.69;;;16.93;100.00
71004;BME280;59025;42.050;-8.660;2022-10-16T05:23:22;100382.78;;;16.97;100.00
71004;BME280;59025;42.050;-8.660;2022-10-16T05:25:54;100375.28;;;17.00;100.00
71004;BME280;59025;42.050;-8.660;2022-10-16T05:28:24;100375.28;;;17.00;100.00
71004;BME280;59025;42.050;-8.660;2022-10-16T05:30:51;100381.50;;;16.99;100.00
71004;BME280;59025;42.050;-8.660;2022-10-16T05:33:20;100380.94;;;16.97;100.00
71004;BME280;59025;42.050;-8.660;2022-10-16T05:35:49;100388.75;;;16.97;100.00
71004;BME280;59025;42.050;-8.660;2022-10-16T05:38:17;100390.28;;;16.93;100.00
71004;BME280;59025;42.050;-8.660;2022-10-16T05:40:50;100404.28;;;16.92;100.00
71004;BME280;59025;42.050;-8.660;2022-10-16T05:43:18;100409.25;;;16.94;100.00
71004;BME280;59025;42.050;-8.660;2022-10-16T05:45:53;100426.69;;;16.93;100.00
71004;BME280;59025;42.050;-8.660;2022-10-16T05:48:21;100419.66;;;16.94;100.00
71004;BME280;59025;42.050;-8.660;2022-10-16T05:50:56;100427.66;;;16.87;100.00
71004;BME280;59025;42.050;-8.660;2022-10-16T05:53:24;100427.38;;;16.89;100.00
71004;BME280;59025;42.050;-8.660;2022-10-16T05:55:52;100428.19;;;16.89;100.00
71004;BME280;59025;42.050;-8.660;2022-10-16T05:58:20;100434.94;;;16.90;100.00
71004;BME280;59025;42.050;-8.660;2022-10-16T06:00:53;100424.53;;;16.90;100.00
71004;BME280;59025;42.050;-8.660;2022-10-16T06:03:21;100420.16;;;16.91;100.00
71004;BME280;59025;42.050;-8.660;2022-10-16T06:05:50;100419.53;;;16.84;100.00
71004;BME280;59025;42.050;-8.660;2022-10-16T06:08:18;100409.47;;;16.87;100.00
71004;BME280;59025;42.050;-8.660;2022-10-16T06:10:46;100406.66;;;16.94;100.00
71004;BME280;59025;42.050;-8.660;2022-10-16T06:13:14;100391.63;;;17.01;100.00
71004;BME280;59025;42.050;-8.660;2022-10-16T06:15:42;100399.72;;;16.99;100.00
71004;BME280;59025;42.050;-8.660;2022-10-16T06:18:10;100395.03;;;17.01;100.00
71004;BME280;59025;42.050;-8.660;2022-10-16T06:20:37;100403.56;;;16.97;100.00
71004;BME280;59025;42.050;-8.660;2022-10-16T06:23:06;100406.72;;;16.99;100.00
71004;BME280;59025;42.050;-8.660;2022-10-16T06:25:33;100414.25;;;17.00;100.00
71004;BME280;59025;42.050;-8.660;2022-10-16T06:28:01;100410.81;;;16.95;100.00
71004;BME280;59025;42.050;-8.660;2022-10-16T06:30:28;100417.59;;;16.96;100.00
71004;BME280;59025;42.050;-8.660;2022-10-16T06:32:56;100418.38;;;16.96;100.00
71004;BME280;59025;42.050;-8.660;2022-10-16T06:35:23;100440.63;;;16.87;100.00
71004;BME280;59025;42.050;-8.660;2022-10-16T06:37:52;100433.38;;;16.89;100.00
71004;BME280;59025;42.050;-8.660;2022-10-16T06:40:21;100424.78;;;16.89;100.00
71004;BME280;59025;42.050;-8.660;2022-10-16T06:42:49;100424.53;;;16.90;100.00
71004;BME280;59025;42.050;-8.660;2022-10-16T06:45:17;100421.47;;;16.93;100.00
71004;BME280;59025;42.050;-8.660;2022-10-16T06:47:45;100418.88;;;16.93;100.00
71004;BME280;59025;42.050;-8.660;2022-10-16T06:50:12;100427.38;;;16.89;100.00
71004;BME280;59025;42.050;-8.660;2022-10-16T06:52:39;100442.19;;;16.88;100.00
71004;BME280;59025;42.050;-8.660;2022-10-16T06:55:07;100448.16;;;16.89;100.00
71004;BME280;59025;42.050;-8.660;2022-10-16T06:57:36;100455.72;;;16.90;100.00
71004;BME280;59025;42.050;-8.660;2022-10-16T07:00:05;100449.72;;;16.90;100.00
71004;BME280;59025;42.050;-8.660;2022-10-16T07:02:32;100454.22;;;16.94;100.00
71004;BME280;59025;42.050;-8.660;2022-10-16T07:05:00;100449.56;;;16.96;100.00
71004;BME280;59025;42.050;-8.660;2022-10-16T07:07:27;100460.25;;;17.00;100.00
71004;BME280;59025;42.050;-8.660;2022-10-16T07:09:55;100443.31;;;16.97;100.00
71004;BME280;59025;42.050;-8.660;2022-10-16T07:12:22;100448.06;;;17.00;100.00
71004;BME280;59025;42.050;-8.660;2022-10-16T07:14:51;100444.47;;;17.06;100.00
71004;BME280;59025;42.050;-8.660;2022-10-16T07:17:20;100449.78;;;17.16;100.00
71004;BME280;59025;42.050;-8.660;2022-10-16T07:19:47;100438.88;;;17.19;100.00
71004;BME280;59025;42.050;-8.660;2022-10-16T07:22:15;100449.28;;;17.19;100.00
71004;BME280;59025;42.050;-8.660;2022-10-16T07:24:42;100455.34;;;17.25;100.00
71004;BME280;59025;42.050;-8.660;2022-10-16T07:27:10;100443.63;;;17.22;100.00
71004;BME280;59025;42.050;-8.660;2022-10-16T07:29:38;100453.41;;;17.15;100.00
71004;BME280;59025;42.050;-8.660;2022-10-16T07:32:07;100461.53;;;17.19;100.00
71004;BME280;59025;42.050;-8.660;2022-10-16T07:34:34;100461.19;;;17.15;100.00
71004;BME280;59025;42.050;-8.660;2022-10-16T07:37:01;100458.59;;;17.15;100.00
71004;BME280;59025;42.050;-8.660;2022-10-16T07:39:29;100466.91;;;17.12;100.00
71004;BME280;59025;42.050;-8.660;2022-10-16T07:41:56;100466.38;;;17.10;100.00
71004;BME280;59025;42.050;-8.660;2022-10-16T07:44:24;100469.50;;;17.12;100.00
71004;BME280;59025;42.050;-8.660;2022-10-16T07:46:51;100474.41;;;17.09;100.00
71004;BME280;59025;42.050;-8.660;2022-10-16T07:49:20;100484.00;;;17.08;100.00
71004;BME280;59025;42.050;-8.660;2022-10-16T07:51:47;100492.66;;;17.14;100.00
71004;BME280;59025;42.050;-8.660;2022-10-16T07:54:15;100488.00;;;17.16;100.00
71004;BME280;59025;42.050;-8.660;2022-10-16T07:56:42;100489.78;;;17.10;100.00
71004;BME280;59025;42.050;-8.660;2022-10-16T07:59:10;100493.44;;;17.14;100.00
71004;BME280;59025;42.050;-8.660;2022-10-16T08:01:37;100510.00;;;17.08;100.00
71004;BME280;59025;42.050;-8.660;2022-10-16T08:04:05;100505.91;;;17.12;100.00
71004;BME280;59025;42.050;-8.660;2022-10-16T08:06:37;100499.78;;;17.23;100.00
71004;BME280;59025;42.050;-8.660;2022-10-16T08:09:05;100488.16;;;17.31;100.00
71004;BME280;59025;42.050;-8.660;2022-10-16T08:11:33;100503.06;;;17.14;100.00
71004;BME280;59025;42.050;-8.660;2022-10-16T08:14:01;100501.22;;;17.14;100.00
71004;BME280;59025;42.050;-8.660;2022-10-16T08:16:28;100499.19;;;17.16;100.00
71004;BME280;59025;42.050;-8.660;2022-10-16T08:18:55;100491.41;;;17.16;100.00
71004;BME280;59025;42.050;-8.660;2022-10-16T08:21:23;100494.00;;;17.16;100.00
71004;BME280;59025;42.050;-8.660;2022-10-16T08:23:53;100506.25;;;17.21;100.00
71004;BME280;59025;42.050;-8.660;2022-10-16T08:26:21;100495.06;;;17.20;100.00
71004;BME280;59025;42.050;-8.660;2022-10-16T08:28:49;100508.63;;;17.22;100.00
71004;BME280;59025;42.050;-8.660;2022-10-16T08:31:17;100508.06;;;17.20;100.00
71004;BME280;59025;42.050;-8.660;2022-10-16T08:33:45;100518.47;;;17.20;100.00
71004;BME280;59025;42.050;-8.660;2022-10-16T08:36:14;100525.72;;;17.18;100.00
71004;BME280;59025;42.050;-8.660;2022-10-16T08:38:41;100532.38;;;17.31;100.00
71004;BME280;59025;42.050;-8.660;2022-10-16T08:41:23;100526.81;;;17.22;100.00
71004;BME280;59025;42.050;-8.660;2022-10-16T08:44:02;100529.19;;;17.24;100.00
71004;BME280;59025;42.050;-8.660;2022-10-16T08:46:40;100522.09;;;17.19;100.00
71004;BME280;59025;42.050;-8.660;2022-10-16T08:49:14;100526.81;;;17.22;100.00
71004;BME280;59025;42.050;-8.660;2022-10-16T08:51:42;100528.88;;;17.20;100.00
71004;BME280;59025;42.050;-8.660;2022-10-16T08:54:22;100527.06;;;17.21;100.00
71004;BME280;59025;42.050;-8.660;2022-10-16T08:56:56;100528.91;;;17.25;100.00
71004;BME280;59025;42.050;-8.660;2022-10-16T08:59:24;100534.91;;;17.26;100.00
71004;BME280;59025;42.050;-8.660;2022-10-16T09:01:52;100531.06;;;17.28;100.00
71004;BME280;59025;42.050;-8.660;2022-10-16T09:04:48;100542.97;;;17.24;100.00
71004;BME280;59025;42.050;-8.660;2022-10-16T09:07:23;100553.06;;;17.21;100.00
71004;BME280;59025;42.050;-8.660;2022-10-16T09:10:14;100560.06;;;17.20;100.00
71004;BME280;59025;42.050;-8.660;2022-10-16T09:12:53;100564.97;;;17.17;100.00
71004;BME280;59025;42.050;-8.660;2022-10-16T09:15:29;100568.44;;;17.22;100.00
71004;BME280;59025;42.050;-8.660;2022-10-16T09:18:02;100569.13;;;17.18;100.00
71004;BME280;59025;42.050;-8.660;2022-10-16T09:20:42;100569.41;;;17.16;100.00
71004;BME280;59025;42.050;-8.660;2022-10-16T09:23:16;100561.66;;;17.21;100.00
71004;BME280;59025;42.050;-8.660;2022-10-16T09:25:46;100552.00;;;17.38;100.00
71004;BME280;59025;42.050;-8.660;2022-10-16T09:28:16;100534.44;;;17.50;100.00
71004;BME280;59025;42.050;-8.660;2022-10-16T09:30:45;100520.25;;;17.63;100.00
71004;BME280;59025;42.050;-8.660;2022-10-16T09:33:15;100512.34;;;17.79;100.00
71004;BME280;59025;42.050;-8.660;2022-10-16T09:35:44;100513.78;;;17.97;100.00
71004;BME280;59025;42.050;-8.660;2022-10-16T09:38:25;100492.22;;;18.01;100.00
71004;BME280;59025;42.050;-8.660;2022-10-16T09:40:54;100496.34;;;17.97;100.00
71004;BME280;59025;42.050;-8.660;2022-10-16T09:43:26;100504.97;;;17.98;100.00
71004;BME280;59025;42.050;-8.660;2022-10-16T09:45:58;100502.03;;;17.89;100.00
71004;BME280;59025;42.050;-8.660;2022-10-16T09:48:33;100517.50;;;17.74;100.00
71004;BME280;59025;42.050;-8.660;2022-10-16T09:51:04;100525.31;;;17.74;100.00
71004;BME280;59025;42.050;-8.660;2022-10-16T09:53:40;100540.81;;;17.64;100.00
71004;BME280;59025;42.050;-8.660;2022-10-16T09:56:10;100546.53;;;17.61;100.00
71004;BME280;59025;42.050;-8.660;2022-10-16T09:58:49;100564.19;;;17.59;100.00
71004;BME280;59025;42.050;-8.660;2022-10-16T10:01:17;100561.78;;;17.53;100.00
71004;BME280;59025;42.050;-8.660;2022-10-16T10:03:44;100565.72;;;17.55;100.00
71004;BME280;59025;42.050;-8.660;2022-10-16T10:06:23;100571.41;;;17.52;100.00
71004;BME280;59025;42.050;-8.660;2022-10-16T10:08:56;100570.38;;;17.53;100.00
71004;BME280;59025;42.050;-8.660;2022-10-16T10:11:48;100563.31;;;17.49;100.00
71004;BME280;59025;42.050;-8.660;2022-10-16T10:14:26;100580.66;;;17.43;100.00
71004;BME280;59025;42.050;-8.660;2022-10-16T10:17:09;100568.69;;;17.42;100.00
71004;BME280;59025;42.050;-8.660;2022-10-16T10:19:41;100564.09;;;17.49;100.00
71004;BME280;59025;42.050;-8.660;2022-10-16T10:22:27;100559.66;;;17.50;100.00
71004;BME280;59025;42.050;-8.660;2022-10-16T10:25:25;100551.69;;;17.56;100.00
71004;BME280;59025;42.050;-8.660;2022-10-16T10:28:03;100541.63;;;17.65;100.00
71004;BME280;59025;42.050;-8.660;2022-10-16T10:30:40;100551.03;;;17.71;100.00
71004;BME280;59025;42.050;-8.660;2022-10-16T10:33:20;100544.56;;;17.73;100.00
71004;BME280;59025;42.050;-8.660;2022-10-16T10:35:54;100545.38;;;17.79;100.00
71004;BME280;59025;42.050;-8.660;2022-10-16T10:38:31;100547.50;;;17.82;100.00
71004;BME280;59025;42.050;-8.660;2022-10-16T10:41:21;100550.06;;;17.77;100.00
71004;BME280;59025;42.050;-8.660;2022-10-16T10:44:01;100560.22;;;17.78;100.00
71004;BME280;59025;42.050;-8.660;2022-10-16T10:46:35;100557.53;;;17.68;100.00
71004;BME280;59025;42.050;-8.660;2022-10-16T10:49:42;100585.00;;;17.59;100.00
71004;BME280;59025;42.050;-8.660;2022-10-16T10:52:29;100594.69;;;17.42;100.00
71004;BME280;59025;42.050;-8.660;2022-10-16T10:55:15;100614.06;;;17.35;100.00
71004;BME280;59025;42.050;-8.660;2022-10-16T10:58:03;100632.16;;;17.25;100.00
71004;BME280;59025;42.050;-8.660;2022-10-16T11:00:45;100634.13;;;17.18;100.00
71004;BME280;59025;42.050;-8.660;2022-10-16T11:03:27;100641.56;;;17.09;100.00
71004;BME280;59025;42.050;-8.660;2022-10-16T11:06:02;100639.53;;;17.11;100.00
71004;BME280;59025;42.050;-8.660;2022-10-16T11:08:36;100631.50;;;17.13;100.00
71004;BME280;59025;42.050;-8.660;2022-10-16T11:11:08;100626.34;;;17.18;100.00
71004;BME280;59025;42.050;-8.660;2022-10-16T11:13:42;100626.66;;;17.21;100.00
71004;BME280;59025;42.050;-8.660;2022-10-16T11:16:16;100617.94;;;17.11;100.00
71004;BME280;59025;42.050;-8.660;2022-10-16T11:18:51;100618.78;;;17.16;100.00
71004;BME280;59025;42.050;-8.660;2022-10-16T11:21:22;100613.09;;;17.19;100.00
71004;BME280;59025;42.050;-8.660;2022-10-16T11:23:55;100613.97;;;17.25;100.00
71004;BME280;59025;42.050;-8.660;2022-10-16T11:26:26;100620.81;;;17.31;100.00
71004;BME280;59025;42.050;-8.660;2022-10-16T11:28:55;100619.03;;;17.36;100.00
71004;BME280;59025;42.050;-8.660;2022-10-16T11:31:28;100605.50;;;17.34;100.00
71004;BME280;59025;42.050;-8.660;2022-10-16T11:34:06;100606.13;;;17.41;100.00
71004;BME280;59025;42.050;-8.660;2022-10-16T11:36:47;100604.22;;;17.37;100.00
71004;BME280;59025;42.050;-8.660;2022-10-16T11:39:21;100599.25;;;17.35;100.00
71004;BME280;59025;42.050;-8.660;2022-10-16T11:41:51;100598.16;;;17.31;100.00
71004;BME280;59025;42.050;-8.660;2022-10-16T11:44:42;100593.53;;;17.33;100.00
71004;BME280;59025;42.050;-8.660;2022-10-16T11:47:27;100603.94;;;17.33;100.00
71004;BME280;59025;42.050;-8.660;2022-10-16T11:50:01;100596.13;;;17.33;100.00
71004;BME280;59025;42.050;-8.660;2022-10-16T11:52:35;100595.19;;;17.39;100.00
71004;BME280;59025;42.050;-8.660;2022-10-16T11:55:08;100594.06;;;17.35;100.00
71004;BME280;59025;42.050;-8.660;2022-10-16T11:57:43;100591.56;;;17.40;100.00
71004;BME280;59025;42.050;-8.660;2022-10-16T12:00:21;100594.69;;;17.42;100.00
71004;BME280;59025;42.050;-8.660;2022-10-16T12:02:57;100583.00;;;17.45;100.00
71004;BME280;59025;42.050;-8.660;2022-10-16T12:05:38;100585.16;;;17.48;100.00
71004;BME280;59025;42.050;-8.660;2022-10-16T12:08:10;100571.09;;;17.49;100.00
71004;BME280;59025;42.050;-8.660;2022-10-16T12:10:40;100575.81;;;17.52;100.00
71004;BME280;59025;42.050;-8.660;2022-10-16T12:13:29;100579.88;;;17.43;100.00
71004;BME280;59025;42.050;-8.660;2022-10-16T12:16:06;100578.78;;;17.39;100.00
71004;BME280;59025;42.050;-8.660;2022-10-16T12:18:33;100571.28;;;17.42;100.00
71004;BME280;59025;42.050;-8.660;2022-10-16T12:21:03;100572.84;;;17.43;100.00
71004;BME280;59025;42.050;-8.660;2022-10-16T12:23:33;100568.44;;;17.44;100.00
71004;BME280;59025;42.050;-8.660;2022-10-16T12:26:04;100560.41;;;17.45;100.00
71004;BME280;59025;42.050;-8.660;2022-10-16T12:28:33;100550.53;;;17.47;100.00
71004;BME280;59025;42.050;-8.660;2022-10-16T12:31:03;100558.63;;;17.51;100.00
71004;BME280;59025;42.050;-8.660;2022-10-16T12:33:33;100557.13;;;17.55;100.00
71004;BME280;59025;42.050;-8.660;2022-10-16T12:36:05;100561.84;;;17.58;100.00
71004;BME280;59025;42.050;-8.660;2022-10-16T12:38:37;100554.03;;;17.58;100.00
71004;BME280;59025;42.050;-8.660;2022-10-16T12:41:07;100560.53;;;17.55;100.00
71004;BME280;59025;42.050;-8.660;2022-10-16T12:43:39;100558.91;;;17.49;100.00
71004;BME280;59025;42.050;-8.660;2022-10-16T12:46:36;100559.97;;;17.53;100.00
71004;BME280;59025;42.050;-8.660;2022-10-16T12:51:59;100566.44;;;17.51;100.00
71004;BME280;59025;42.050;-8.660;2022-10-16T12:54:28;100565.66;;;17.50;100.00
71004;BME280;59025;42.050;-8.660;2022-10-16T12:57:09;100564.88;;;17.50;100.00